createdAt,value
2022-10-29T00:04:59.501Z,10.87
2022-10-29T00:10:03.144Z,10.88
2022-10-29T00:15:07.728Z,10.79
2022-10-29T00:20:13.321Z,10.73
2022-10-29T00:25:16.907Z,10.52
2022-10-29T00:30:20.236Z,10.48
2022-10-29T00:35:26.352Z,10.59
2022-10-29T00:40:29.719Z,10.56
2022-10-29T00:45:33.237Z,10.50
2022-10-29T00:50:38.074Z,10.63
2022-10-29T00:55:41.805Z,10.61
2022-10-29T01:00:45.685Z,10.54
2022-10-29T01:05:51.475Z,10.55
2022-10-29T01:11:04.968Z,10.55
2022-10-29T01:16:17.222Z,10.43
2022-10-29T01:21:39.396Z,10.43
2022-10-29T01:27:20.432Z,10.50
2022-10-29T01:32:31.847Z,10.53
2022-10-29T01:37:43.479Z,10.54
2022-10-29T01:42:52.241Z,10.66
2022-10-29T01:48:02.464Z,10.69
2022-10-29T01:53:07.805Z,10.45
2022-10-29T01:58:13.371Z,10.38
2022-10-29T02:03:31.045Z,10.42
2022-10-29T02:08:45.068Z,10.44
2022-10-29T02:13:56.012Z,10.50
2022-10-29T02:19:01.765Z,10.42
2022-10-29T02:24:05.446Z,10.51
2022-10-29T02:29:08.779Z,10.48
2022-10-29T02:34:13.873Z,10.47
2022-10-29T02:39:17.660Z,10.22
2022-10-29T02:44:20.961Z,10.29
2022-10-29T02:49:25.691Z,10.31
2022-10-29T02:54:28.887Z,10.45
2022-10-29T02:59:32.236Z,10.38
2022-10-29T03:04:39.428Z,10.41
2022-10-29T03:09:43.318Z,10.34
2022-10-29T03:14:46.776Z,10.32
2022-10-29T03:19:51.480Z,10.37
2022-10-29T03:24:54.880Z,10.21
2022-10-29T03:29:58.533Z,10.25
2022-10-29T03:35:03.300Z,10.30
2022-10-29T03:40:06.965Z,10.34
2022-10-29T03:45:11.385Z,10.23
2022-10-29T03:50:16.243Z,10.16
2022-10-29T03:55:19.680Z,10.11
2022-10-29T04:00:23.207Z,10.06
2022-10-29T04:05:28.092Z,10.00
2022-10-29T04:10:31.980Z,9.98
2022-10-29T04:15:35.396Z,10.02
2022-10-29T04:21:05.833Z,10.08
2022-10-29T04:28:17.928Z,10.11
2022-10-29T04:31:29.097Z,10.04
2022-10-29T04:36:33.833Z,10.13
2022-10-29T04:41:37.205Z,10.06
2022-10-29T04:46:40.788Z,10.02
2022-10-29T04:51:45.586Z,10.02
2022-10-29T04:56:51.085Z,10.15
2022-10-29T05:01:54.169Z,10.00
2022-10-29T05:06:58.916Z,10.09
2022-10-29T05:12:02.283Z,10.10
2022-10-29T05:22:15.409Z,10.06
2022-10-29T05:27:18.527Z,10.02
2022-10-29T05:32:21.879Z,10.09
2022-10-29T05:37:28.009Z,10.22
2022-10-29T05:42:31.444Z,10.20
2022-10-29T05:47:34.756Z,10.12
2022-10-29T05:52:39.920Z,10.31
2022-10-29T05:57:43.248Z,10.31
2022-10-29T06:02:46.782Z,10.30
2022-10-29T06:07:57.063Z,10.37
2022-10-29T06:13:00.745Z,10.49
2022-10-29T06:18:04.166Z,10.61
2022-10-29T06:23:08.985Z,10.80
2022-10-29T06:28:15.479Z,10.81
2022-10-29T06:33:19.672Z,10.76
2022-10-29T06:38:24.506Z,10.62
2022-10-29T06:43:27.654Z,10.74
2022-10-29T06:48:31.085Z,10.61
2022-10-29T06:53:35.864Z,10.82
2022-10-29T06:58:38.982Z,10.95
2022-10-29T07:03:42.387Z,10.78
2022-10-29T07:08:47.497Z,10.95
2022-10-29T07:13:50.987Z,10.84
2022-10-29T07:18:55.133Z,10.91
2022-10-29T07:23:59.957Z,10.85
2022-10-29T07:29:03.626Z,10.81
2022-10-29T07:34:06.964Z,10.72
2022-10-29T07:39:11.949Z,10.78
2022-10-29T07:44:15.297Z,10.76
2022-10-29T07:49:18.820Z,10.89
2022-10-29T07:54:23.522Z,10.76
2022-10-29T07:59:27.217Z,10.71
2022-10-29T08:04:30.675Z,10.71
2022-10-29T08:09:35.668Z,10.95
2022-10-29T08:14:39.455Z,10.97
2022-10-29T08:19:42.852Z,11.08
2022-10-29T08:24:47.569Z,11.08
2022-10-29T08:29:51.362Z,10.94
2022-10-29T08:34:56.340Z,10.82
2022-10-29T08:40:01.264Z,10.80
2022-10-29T08:45:25.013Z,10.87
2022-10-29T08:50:31.879Z,10.83
2022-10-29T08:55:39.164Z,11.00
2022-10-29T09:00:43.629Z,10.89
2022-10-29T09:06:04.043Z,11.03
2022-10-29T09:11:25.754Z,10.84
2022-10-29T09:16:44.183Z,10.89
2022-10-29T09:21:57.915Z,10.72
2022-10-29T09:27:10.636Z,10.65
2022-10-29T09:32:22.086Z,10.87
2022-10-29T09:37:37.055Z,11.01
2022-10-29T09:42:42.727Z,11.05
2022-10-29T09:47:55.671Z,10.80
2022-10-29T09:52:59.516Z,10.91
2022-10-29T09:58:05.898Z,10.72
2022-10-29T10:03:16.291Z,10.85
2022-10-29T10:08:20.009Z,10.81
2022-10-29T10:13:27.598Z,10.92
2022-10-29T10:18:41.558Z,11.15
2022-10-29T10:23:47.663Z,11.09
2022-10-29T10:29:06.032Z,11.11
2022-10-29T10:34:15.412Z,11.03
2022-10-29T10:39:27.761Z,10.91
2022-10-29T10:44:33.047Z,10.90
2022-10-29T10:49:38.151Z,10.96
2022-10-29T10:54:45.946Z,10.88
2022-10-29T10:59:57.868Z,10.81
2022-10-29T11:05:08.025Z,10.77
2022-10-29T11:10:14.600Z,10.86
2022-10-29T11:15:31.129Z,10.84
2022-10-29T11:20:37.740Z,10.78
2022-10-29T11:25:45.810Z,10.82
2022-10-29T11:30:56.278Z,10.97
2022-10-29T11:36:04.970Z,11.02
2022-10-29T11:41:20.660Z,10.94
2022-10-29T11:46:35.897Z,10.98
2022-10-29T11:51:52.003Z,11.01
2022-10-29T11:57:00.240Z,10.86
2022-10-29T12:02:24.649Z,10.91
2022-10-29T12:07:43.756Z,10.91
2022-10-29T12:12:52.742Z,10.97
2022-10-29T12:18:10.863Z,10.98
2022-10-29T12:23:25.572Z,10.81
2022-10-29T12:28:40.201Z,10.82
2022-10-29T12:33:53.065Z,10.74
2022-10-29T12:38:58.350Z,10.48
2022-10-29T12:44:10.304Z,10.55
2022-10-29T12:49:24.113Z,10.65
2022-10-29T12:54:35.937Z,10.51
2022-10-29T12:59:40.264Z,10.48
2022-10-29T13:05:16.324Z,10.73
2022-10-29T13:10:49.521Z,10.69
2022-10-29T13:16:02.039Z,10.73
2022-10-29T13:21:07.296Z,10.68
2022-10-29T13:26:11.064Z,10.63
2022-10-29T13:31:45.440Z,10.51
2022-10-29T13:36:50.213Z,10.58
2022-10-29T13:41:54.740Z,10.40
2022-10-29T13:47:01.250Z,10.48
2022-10-29T13:52:22.344Z,10.51
2022-10-29T13:57:31.325Z,10.53
2022-10-29T14:02:49.570Z,10.67
2022-10-29T14:08:00.703Z,10.63
2022-10-29T14:13:13.595Z,10.47
2022-10-29T14:18:22.635Z,10.53
2022-10-29T14:23:28.456Z,10.55
2022-10-29T14:28:32.350Z,10.55
2022-10-29T14:33:37.730Z,10.54
2022-10-29T14:38:45.416Z,10.61
2022-10-29T14:43:57.808Z,10.50
2022-10-29T14:49:06.806Z,10.61
2022-10-29T14:54:24.136Z,10.54
2022-10-29T14:59:30.140Z,10.56
2022-10-29T15:04:34.210Z,10.47
2022-10-29T15:09:39.065Z,10.51
2022-10-29T15:14:47.809Z,10.37
2022-10-29T15:19:55.980Z,10.45
2022-10-29T15:25:03.078Z,10.55
2022-10-29T15:30:09.747Z,10.56
2022-10-29T15:35:21.424Z,10.45
2022-10-29T15:40:27.059Z,10.42
2022-10-29T15:45:30.644Z,10.39
2022-10-29T15:50:41.155Z,10.59
2022-10-29T15:55:46.562Z,10.58
2022-10-29T16:00:50.441Z,10.63
2022-10-29T16:05:57.270Z,10.64
2022-10-29T16:11:05.688Z,10.53
2022-10-29T16:16:14.468Z,10.58
2022-10-29T16:21:20.684Z,10.53
2022-10-29T16:26:27.116Z,10.62
2022-10-29T16:31:31.195Z,10.64
2022-10-29T16:36:34.616Z,10.57
2022-10-29T16:41:39.495Z,10.44
2022-10-29T16:46:42.567Z,10.58
2022-10-29T16:51:46.059Z,10.59
2022-10-29T16:56:52.866Z,10.65
2022-10-29T17:01:56.317Z,10.54
2022-10-29T17:06:59.643Z,10.44
2022-10-29T17:12:04.702Z,10.49
2022-10-29T17:17:08.084Z,10.64
2022-10-29T17:22:15.942Z,10.62
2022-10-29T17:27:20.695Z,10.68
2022-10-29T17:32:24.901Z,10.82
2022-10-29T17:37:29.123Z,10.63
2022-10-29T17:42:33.970Z,10.60
2022-10-29T17:47:37.160Z,10.47
2022-10-29T17:52:40.661Z,10.37
2022-10-29T17:57:45.421Z,10.41
2022-10-29T18:02:50.020Z,10.53
2022-10-29T18:07:53.551Z,10.54
2022-10-29T18:12:59.504Z,10.70
2022-10-29T18:18:04.238Z,10.74
2022-10-29T18:23:07.361Z,10.74
2022-10-29T18:28:12.172Z,10.73
2022-10-29T18:33:15.522Z,10.76
2022-10-29T18:38:18.903Z,10.65
2022-10-29T18:43:24.672Z,10.63
2022-10-29T18:53:32.020Z,10.59
2022-10-29T18:58:36.901Z,10.60
2022-10-29T19:03:40.494Z,10.67
2022-10-29T19:08:45.807Z,10.59
2022-10-29T19:13:54.057Z,10.64
2022-10-29T19:18:58.764Z,10.60
2022-10-29T19:24:02.359Z,10.65
2022-10-29T19:29:08.702Z,10.80
2022-10-29T19:34:12.219Z,10.69
2022-10-29T19:39:16.089Z,10.70
2022-10-29T19:44:20.811Z,10.81
2022-10-29T19:49:24.150Z,10.78
2022-10-29T19:54:27.573Z,10.76
2022-10-29T19:59:32.718Z,10.81
2022-10-29T20:04:36.120Z,10.86
2022-10-29T20:09:39.936Z,10.89
2022-10-29T20:14:44.738Z,10.98
2022-10-29T20:19:47.835Z,11.05
2022-10-29T20:24:51.163Z,10.85
2022-10-29T20:29:55.885Z,10.90
2022-10-29T20:34:59.234Z,10.96
2022-10-29T20:40:02.916Z,10.91
2022-10-29T20:45:09.412Z,10.86
2022-10-29T20:50:12.738Z,10.82
2022-10-29T20:55:16.312Z,10.82
2022-10-29T21:00:21.391Z,10.88
2022-10-29T21:05:24.842Z,10.90
2022-10-29T21:10:28.226Z,10.93
2022-10-29T21:15:35.807Z,10.95
2022-10-29T21:20:39.137Z,10.95
2022-10-29T21:25:42.495Z,10.79
2022-10-29T21:30:47.301Z,10.88
2022-10-29T21:35:52.083Z,10.99
2022-10-29T21:40:55.837Z,10.85
2022-10-29T21:46:00.845Z,11.01
2022-10-29T21:51:06.227Z,11.06
2022-10-29T21:56:12.748Z,11.14
2022-10-29T22:01:18.407Z,11.16
2022-10-29T22:06:23.995Z,11.13
2022-10-29T22:11:28.783Z,11.21
2022-10-29T22:16:33.240Z,11.05
2022-10-29T22:21:36.646Z,11.12
2022-10-29T22:26:40.010Z,11.27
2022-10-29T22:31:44.735Z,11.43
2022-10-29T22:36:48.043Z,11.58
2022-10-29T22:41:51.530Z,11.51
2022-10-29T22:46:56.219Z,11.43
2022-10-29T22:52:01.531Z,11.54
2022-10-29T22:57:05.364Z,11.54
2022-10-29T23:02:10.274Z,11.57
2022-10-29T23:07:13.646Z,11.59
2022-10-29T23:12:17.113Z,11.60
2022-10-29T23:17:21.952Z,11.76
2022-10-29T23:22:27.439Z,11.91
2022-10-29T23:27:31.219Z,11.83
2022-10-29T23:32:35.950Z,11.89
2022-10-29T23:37:39.101Z,11.98
2022-10-29T23:42:42.437Z,11.79
2022-10-29T23:47:47.187Z,11.85
2022-10-29T23:52:50.603Z,11.79
2022-10-29T23:57:54.166Z,11.77
